Time;durP1;ratioP1;P1;durP2;ratioP2;P2;SDS_P1;SDS_P2;PMS_P1;PMS_P2;Temp;Humidity;BMP_temperature;BMP_pressure;BME280_temperature;BME280_humidity;BME280_pressure;Samples;Min_cycle;Max_cycle;Signal;HPM_P1;HPM_P2
2023/10/09 00:02:54;;;;;;;20.02;11.00;;;16.30;99.90;;;;;;4982747;28;48961;-79
2023/10/09 00:05:30;;;;;;;17.95;10.40;;;16.30;99.90;;;;;;4985657;28;37767;-79
2023/10/09 00:07:57;;;;;;;13.80;10.55;;;16.30;99.90;;;;;;4987334;28;36949;-80
2023/10/09 00:10:34;;;;;;;23.23;10.50;;;16.30;99.90;;;;;;4982025;28;37736;-79
2023/10/09 00:13:01;;;;;;;15.23;10.82;;;16.30;99.90;;;;;;4986027;28;38828;-78
2023/10/09 00:15:28;;;;;;;15.27;9.20;;;16.40;99.90;;;;;;5003682;28;46875;-79
2023/10/09 00:17:58;;;;;;;18.00;10.07;;;16.40;99.90;;;;;;4985487;28;38441;-80
2023/10/09 00:20:38;;;;;;;12.15;9.35;;;16.40;99.90;;;;;;4978407;28;37453;-79
2023/10/09 00:23:12;;;;;;;14.18;9.60;;;16.40;99.90;;;;;;4995860;28;38732;-80
2023/10/09 00:25:46;;;;;;;12.95;8.40;;;16.50;99.90;;;;;;4989432;28;37372;-80
2023/10/09 00:28:13;;;;;;;14.13;9.68;;;16.50;99.90;;;;;;4985438;28;38078;-79
2023/10/09 00:30:42;;;;;;;14.45;8.43;;;16.50;99.90;;;;;;4981610;28;36834;-79
2023/10/09 00:33:09;;;;;;;20.95;9.82;;;16.50;99.90;;;;;;4983892;28;38221;-78
2023/10/09 00:38:22;;;;;;;15.98;8.27;;;16.60;99.90;;;;;;4982626;28;39141;-79
2023/10/09 00:43:35;;;;;;;13.82;8.55;;;16.60;99.90;;;;;;4979311;28;48807;-79
2023/10/09 00:46:04;;;;;;;14.05;8.38;;;16.60;99.90;;;;;;4977518;28;38153;-79
2023/10/09 00:48:37;;;;;;;13.27;7.90;;;16.60;99.90;;;;;;4996673;28;37122;-79
2023/10/09 00:51:18;;;;;;;15.27;7.53;;;16.70;99.90;;;;;;4980793;28;36020;-79
2023/10/09 00:53:51;;;;;;;17.15;8.43;;;16.70;99.90;;;;;;4978305;28;37701;-79
2023/10/09 01:04:26;;;;;;;15.18;7.43;;;16.80;99.90;;;;;;5066325;28;20041;-79
2023/10/09 01:07:38;;;;;;;13.43;7.47;;;16.70;99.90;;;;;;5087689;28;36581;-79
2023/10/09 01:09:43;;;;;;;15.13;8.48;;;16.80;99.90;;;;;;5080855;27;47669;-79
2023/10/09 01:12:16;;;;;;;12.18;7.00;;;16.80;99.90;;;;;;5099807;27;38521;-79
2023/10/09 01:14:43;;;;;;;13.48;7.18;;;16.80;99.90;;;;;;5083907;28;37922;-79
2023/10/09 01:17:11;;;;;;;15.73;7.10;;;16.90;99.90;;;;;;5083046;27;38350;-79
2023/10/09 01:19:37;;;;;;;9.40;6.90;;;16.90;99.90;;;;;;5085245;28;38402;-79
2023/10/09 01:22:13;;;;;;;13.60;6.65;;;16.90;99.90;;;;;;5083989;28;36943;-79
2023/10/09 01:24:40;;;;;;;10.90;6.53;;;16.90;99.90;;;;;;5078361;27;38697;-78
2023/10/09 01:27:14;;;;;;;11.27;6.90;;;16.90;99.90;;;;;;5078766;27;37239;-79
2023/10/09 01:29:41;;;;;;;13.15;6.93;;;17.00;99.90;;;;;;5077076;28;37950;-78
2023/10/09 01:32:16;;;;;;;14.10;7.10;;;17.00;99.90;;;;;;5069232;28;36973;-78
2023/10/09 01:34:43;;;;;;;11.82;6.70;;;17.00;99.90;;;;;;5061132;28;37540;-78
2023/10/09 01:37:25;;;;;;;13.50;7.68;;;17.00;99.90;;;;;;5070259;28;37840;-78
2023/10/09 01:39:52;;;;;;;12.73;7.28;;;17.00;99.90;;;;;;5065881;28;37175;-78
2023/10/09 01:42:45;;;;;;;11.05;6.20;;;17.00;99.90;;;;;;5059363;28;36175;-78
2023/10/09 01:47:51;;;;;;;13.55;7.35;;;17.00;99.90;;;;;;5064665;28;39719;-78
2023/10/09 01:50:35;;;;;;;13.55;6.88;;;17.00;99.90;;;;;;5064444;28;38674;-78
2023/10/09 01:53:05;;;;;;;14.32;7.50;;;17.00;99.90;;;;;;5101561;27;36278;-78
2023/10/09 01:58:23;;;;;;;16.23;7.47;;;17.00;99.90;;;;;;5079377;27;39107;-78
2023/10/09 02:00:54;;;;;;;11.23;7.13;;;17.00;99.90;;;;;;5063838;28;47196;-78
2023/10/09 02:03:25;;;;;;;12.05;6.90;;;17.00;99.90;;;;;;5056363;28;37051;-78
2023/10/09 02:05:53;;;;;;;20.08;8.02;;;17.00;99.90;;;;;;5058641;28;38730;-78
2023/10/09 02:08:26;;;;;;;16.60;8.02;;;17.00;99.90;;;;;;5073962;28;37313;-78
2023/10/09 02:10:56;;;;;;;15.35;7.55;;;17.10;99.90;;;;;;5061172;28;37885;-77
2023/10/09 02:13:29;;;;;;;10.80;6.38;;;17.10;99.90;;;;;;5064800;28;36145;-78
2023/10/09 02:16:14;;;;;;;15.43;7.30;;;17.10;99.90;;;;;;5064473;28;37663;-78
2023/10/09 02:18:52;;;;;;;10.93;7.07;;;17.10;99.90;;;;;;5061724;28;49016;-78
2023/10/09 02:21:33;;;;;;;18.95;8.40;;;17.10;99.90;;;;;;5056217;27;37844;-78
2023/10/09 02:24:04;;;;;;;14.05;7.13;;;17.10;99.90;;;;;;5065728;28;37201;-78
2023/10/09 02:27:06;;;;;;;14.07;7.20;;;17.10;99.90;;;;;;5080436;27;48629;-78
2023/10/09 02:29:26;;;;;;;19.00;8.15;;;17.10;99.90;;;;;;5080586;27;37969;-77
2023/10/09 02:31:55;;;;;;;16.90;7.72;;;17.10;99.90;;;;;;5076377;27;38556;-78
2023/10/09 02:34:27;;;;;;;13.48;7.32;;;17.10;99.90;;;;;;5075373;28;36102;-79
2023/10/09 02:37:05;;;;;;;12.25;7.43;;;17.10;99.90;;;;;;5078736;28;37935;-79
2023/10/09 02:39:43;;;;;;;14.23;8.15;;;17.10;99.90;;;;;;5093171;27;47050;-78
2023/10/09 02:44:49;;;;;;;15.00;7.70;;;17.10;99.90;;;;;;5087868;27;37063;-79
2023/10/09 02:47:29;;;;;;;16.10;7.85;;;17.10;99.90;;;;;;5095851;27;37631;-80
2023/10/09 02:50:09;;;;;;;18.65;8.45;;;17.00;99.90;;;;;;5077415;27;36994;-78
2023/10/09 02:52:40;;;;;;;20.63;8.88;;;17.00;99.90;;;;;;5079539;28;47254;-78
2023/10/09 02:55:24;;;;;;;17.48;9.30;;;17.10;99.90;;;;;;5075221;27;36987;-77
2023/10/09 02:57:58;;;;;;;13.80;8.63;;;17.10;99.90;;;;;;5076722;28;39543;-79
2023/10/09 03:00:31;;;;;;;20.65;9.40;;;17.10;99.90;;;;;;5081578;28;37322;-79
2023/10/09 03:02:58;;;;;;;;;;;17.10;99.90;;;;;;5075165;28;38696;-79
2023/10/09 03:05:28;;;;;;;19.95;9.85;;;17.10;99.90;;;;;;5077436;27;37570;-79
2023/10/09 03:07:55;;;;;;;15.60;9.75;;;17.10;99.90;;;;;;5080380;28;37695;-80
2023/10/09 03:10:25;;;;;;;15.73;9.75;;;17.10;99.90;;;;;;5076718;27;38394;-79
2023/10/09 03:12:53;;;;;;;19.10;9.85;;;17.10;99.90;;;;;;5101296;27;37109;-80
2023/10/09 03:15:20;;;;;;;20.25;11.27;;;17.10;99.90;;;;;;5081018;28;37387;-78
2023/10/09 03:17:48;;;;;;;18.42;10.20;;;17.10;99.90;;;;;;5079562;28;38764;-79
2023/10/09 03:20:18;;;;;;;18.92;10.30;;;17.10;99.90;;;;;;5094657;27;38148;-79
2023/10/09 03:22:45;;;;;;;18.35;10.25;;;17.10;99.90;;;;;;5095060;27;37551;-78
2023/10/09 03:25:12;;;;;;;25.38;12.20;;;17.10;99.90;;;;;;5071488;28;36396;-78
2023/10/09 03:27:42;;;;;;;20.83;11.13;;;17.10;99.90;;;;;;5064175;28;40244;-78
2023/10/09 03:30:10;;;;;;;19.85;10.45;;;17.10;99.90;;;;;;5063472;28;38459;-78
2023/10/09 03:32:36;;;;;;;17.63;10.40;;;17.10;99.90;;;;;;5066221;27;37753;-78
2023/10/09 03:35:06;;;;;;;28.27;10.90;;;17.10;99.90;;;;;;5065790;28;36622;-81
2023/10/09 03:37:35;;;;;;;17.52;10.02;;;17.10;99.90;;;;;;5068699;28;46820;-78
2023/10/09 03:40:03;;;;;;;19.02;9.98;;;17.10;99.90;;;;;;5056701;28;38220;-78
2023/10/09 03:42:30;;;;;;;13.85;9.27;;;17.10;99.90;;;;;;5073878;28;38333;-78
2023/10/09 03:44:57;;;;;;;19.52;10.38;;;17.20;99.90;;;;;;5074646;27;37388;-78
2023/10/09 03:47:24;;;;;;;17.40;10.05;;;17.10;99.90;;;;;;5073792;28;37905;-78
2023/10/09 03:49:53;;;;;;;17.65;10.25;;;17.10;99.90;;;;;;5074164;28;37885;-78
2023/10/09 03:52:19;;;;;;;17.88;10.65;;;17.20;99.90;;;;;;5065686;27;38442;-78
2023/10/09 03:54:46;;;;;;;19.75;10.82;;;17.20;99.90;;;;;;5066261;28;37269;-77
2023/10/09 03:57:19;;;;;;;19.90;10.43;;;17.20;99.90;;;;;;5082357;27;37680;-77
2023/10/09 03:59:46;;;;;;;21.65;11.68;;;17.20;99.90;;;;;;5078168;27;38923;-77
2023/10/09 04:02:14;;;;;;;16.65;11.13;;;17.20;99.90;;;;;;5076496;27;36968;-78
2023/10/09 04:04:46;;;;;;;16.45;11.02;;;17.20;99.90;;;;;;5075158;28;37535;-78
2023/10/09 04:07:17;;;;;;;21.42;11.55;;;17.20;99.90;;;;;;5078928;28;39620;-79
2023/10/09 04:09:47;;;;;;;19.85;9.50;;;17.20;99.90;;;;;;5071237;28;37083;-81
2023/10/09 04:12:24;;;;;;;17.88;9.73;;;17.20;99.90;;;;;;5068772;28;38249;-81
2023/10/09 04:14:54;;;;;;;21.05;10.40;;;17.20;99.90;;;;;;5068102;28;36230;-81
2023/10/09 04:17:33;;;;;;;17.70;8.82;;;17.20;99.90;;;;;;5055475;28;38666;-81
2023/10/09 04:22:59;;;;;;;16.33;9.30;;;17.20;99.90;;;;;;5071967;27;49224;-82
2023/10/09 04:25:26;;;;;;;17.15;9.90;;;17.20;99.90;;;;;;5074498;28;37931;-81
2023/10/09 04:28:18;;;;;;;15.18;8.35;;;17.20;99.90;;;;;;5061688;28;37820;-82
2023/10/09 04:30:55;;;;;;;14.60;9.23;;;17.20;99.90;;;;;;5056128;28;47039;-82
2023/10/09 04:38:59;;;;;;;18.95;10.25;;;17.20;99.90;;;;;;5065015;28;49299;-82
2023/10/09 04:41:32;;;;;;;14.50;9.30;;;17.20;99.90;;;;;;5070335;27;37528;-81
2023/10/09 04:46:44;;;;;;;18.92;10.38;;;17.10;99.90;;;;;;5086665;27;48859;-82
2023/10/09 04:49:49;;;;;;;15.50;8.82;;;17.20;99.90;;;;;;5080381;28;37981;-81
2023/10/09 04:52:17;;;;;;;14.20;8.90;;;17.10;99.90;;;;;;5084734;27;38067;-81
2023/10/09 04:57:29;;;;;;;20.27;10.27;;;17.10;99.90;;;;;;5075283;27;48192;-80
2023/10/09 04:59:58;;;;;;;20.75;10.88;;;17.10;99.90;;;;;;5086166;27;39740;-80
2023/10/09 05:02:24;;;;;;;20.15;10.90;;;17.10;99.90;;;;;;5087009;27;38431;-81
2023/10/09 05:05:27;;;;;;;14.43;9.52;;;17.20;99.90;;;;;;5080703;28;37887;-81
2023/10/09 05:07:55;;;;;;;19.98;10.43;;;17.20;99.90;;;;;;5060956;28;49455;-80
2023/10/09 05:10:25;;;;;;;18.30;10.43;;;17.20;99.90;;;;;;5067347;27;38672;-79
2023/10/09 05:12:57;;;;;;;20.58;11.18;;;17.20;99.90;;;;;;5061602;28;37273;-79
2023/10/09 05:15:28;;;;;;;15.50;9.98;;;17.20;99.90;;;;;;5063978;28;38002;-80
2023/10/09 05:17:56;;;;;;;19.85;10.27;;;17.20;99.90;;;;;;5067235;28;37587;-80
2023/10/09 05:22:58;;;;;;;21.88;9.68;;;17.30;99.90;;;;;;5064834;28;38588;-79
2023/10/09 05:28:48;;;;;;;14.65;9.35;;;17.30;99.90;;;;;;5063234;28;37780;-80
2023/10/09 05:31:45;;;;;;;19.50;9.60;;;17.40;99.90;;;;;;5054941;28;38421;-79
2023/10/09 05:33:52;;;;;;;18.00;8.95;;;17.40;99.90;;;;;;5071168;28;48725;-79
2023/10/09 05:39:18;;;;;;;17.70;7.93;;;17.40;99.90;;;;;;5053267;28;37871;-78
2023/10/09 05:41:59;;;;;;;18.27;7.80;;;17.50;99.90;;;;;;5051622;27;48456;-78
2023/10/09 05:49:57;;;;;;;19.63;8.63;;;17.50;99.90;;;;;;5053267;28;36162;-78
2023/10/09 05:53:00;;;;;;;19.27;8.38;;;17.50;99.90;;;;;;5051393;28;37446;-78
2023/10/09 06:06:02;;;;;;;15.40;7.43;;;17.40;99.90;;;;;;5052387;28;38378;-80
2023/10/09 06:14:04;;;;;;;17.52;7.40;;;17.50;99.90;;;;;;5070707;28;40163;-78
2023/10/09 06:25:08;;;;;;;14.75;7.60;;;17.50;99.90;;;;;;5054738;27;39139;-77
2023/10/09 06:27:12;;;;;;;16.00;8.70;;;17.50;99.90;;;;;;5058254;27;39165;-88
2023/10/09 06:34:46;;;;;;;13.48;7.75;;;17.40;99.90;;;;;;5045730;28;38845;-80
2023/10/09 06:43:07;;;;;;;15.18;7.47;;;17.40;99.90;;;;;;5068549;27;37307;-79
2023/10/09 06:45:21;;;;;;;13.48;6.95;;;17.40;99.90;;;;;;5067064;27;38251;-80
2023/10/09 06:51:40;;;;;;;18.63;7.60;;;17.40;99.90;;;;;;5065374;27;49513;-83
2023/10/09 06:53:58;;;;;;;14.27;7.07;;;17.40;99.90;;;;;;5054936;27;37179;-78
2023/10/09 06:56:29;;;;;;;18.17;6.72;;;17.50;99.90;;;;;;5044870;27;38469;-78
2023/10/09 06:58:57;;;;;;;12.93;6.43;;;17.60;99.90;;;;;;5053229;28;37222;-78
2023/10/09 07:03:59;;;;;;;11.55;6.70;;;17.70;99.90;;;;;;5071413;28;37502;-78
2023/10/09 07:17:04;;;;;;;14.32;7.00;;;17.70;99.90;;;;;;5075430;28;36750;-77
2023/10/09 07:22:04;;;;;;;14.90;6.38;;;17.80;99.90;;;;;;5062940;28;39273;-79
2023/10/09 07:27:43;;;;;;;13.30;7.03;;;17.90;99.90;;;;;;5053173;27;40472;-78
2023/10/09 07:32:54;;;;;;;13.60;6.78;;;18.00;99.90;;;;;;5052193;28;39336;-78
2023/10/09 07:38:09;;;;;;;13.05;7.13;;;18.00;99.90;;;;;;5065438;27;39099;-80
2023/10/09 07:43:28;;;;;;;12.15;6.95;;;18.10;99.90;;;;;;5066937;27;38335;-80
2023/10/09 07:48:38;;;;;;;13.10;7.03;;;18.10;99.90;;;;;;5062565;27;39092;-81
2023/10/09 07:51:12;;;;;;;15.93;7.30;;;18.10;99.90;;;;;;5066117;27;37689;-80
2023/10/09 07:53:44;;;;;;;15.30;7.05;;;18.20;99.90;;;;;;5068828;27;38517;-81
2023/10/09 07:56:20;;;;;;;18.13;7.70;;;18.20;99.90;;;;;;5064690;27;36105;-81
2023/10/09 07:58:47;;;;;;;15.32;7.72;;;18.20;99.90;;;;;;5069591;27;37874;-82
2023/10/09 08:01:22;;;;;;;14.98;7.40;;;18.20;99.90;;;;;;5080976;27;37631;-81
2023/10/09 08:04:02;;;;;;;10.15;6.97;;;18.30;99.90;;;;;;5055755;27;36908;-82
2023/10/09 08:06:44;;;;;;;11.93;7.13;;;18.30;99.90;;;;;;5043716;28;47534;-81
2023/10/09 08:17:05;;;;;;;15.75;7.53;;;18.50;99.90;;;;;;5072673;27;37130;-81
2023/10/09 08:19:34;;;;;;;15.40;7.47;;;18.50;99.90;;;;;;5055764;28;46929;-78
2023/10/09 08:24:55;;;;;;;19.00;7.88;;;18.60;99.90;;;;;;5050297;28;49010;-77
2023/10/09 08:35:46;;;;;;;13.32;6.57;;;18.80;99.90;;;;;;5074323;28;48418;-78
2023/10/09 08:38:12;;;;;;;16.95;7.28;;;18.90;99.90;;;;;;5055120;28;37107;-79
2023/10/09 08:40:40;;;;;;;13.32;6.95;;;19.00;99.90;;;;;;5089344;27;37288;-77
2023/10/09 08:43:16;;;;;;;11.88;6.47;;;19.10;99.90;;;;;;5066805;27;37129;-77
2023/10/09 08:45:51;;;;;;;11.80;6.65;;;19.20;99.90;;;;;;5068000;28;36694;-77
2023/10/09 08:48:18;;;;;;;12.00;6.55;;;19.30;99.90;;;;;;5073338;27;38462;-77
2023/10/09 08:50:54;;;;;;;18.38;6.97;;;19.30;99.90;;;;;;5072544;27;38571;-78
2023/10/09 08:53:21;;;;;;;12.10;6.30;;;19.40;99.90;;;;;;5072410;27;37484;-76
2023/10/09 08:55:47;;;;;;;11.55;6.30;;;19.40;99.90;;;;;;5081209;27;36956;-77
2023/10/09 08:58:24;;;;;;;12.88;6.15;;;19.40;99.90;;;;;;5075104;27;37394;-77
2023/10/09 09:00:51;;;;;;;12.10;6.03;;;19.40;99.90;;;;;;5072261;27;39760;-76
2023/10/09 09:03:24;;;;;;;13.95;6.55;;;19.50;99.90;;;;;;5068644;28;37270;-76
2023/10/09 09:06:01;;;;;;;14.43;6.00;;;19.50;99.90;;;;;;5064995;27;37566;-77
2023/10/09 09:08:31;;;;;;;13.93;6.75;;;19.50;99.90;;;;;;5077443;27;36801;-77
2023/10/09 09:11:11;;;;;;;11.10;5.82;;;19.60;99.90;;;;;;5072961;28;38821;-77
2023/10/09 09:13:41;;;;;;;11.05;5.60;;;19.70;99.90;;;;;;5069645;28;47584;-77
2023/10/09 09:16:21;;;;;;;10.80;6.57;;;19.70;99.90;;;;;;5052731;28;36463;-77
2023/10/09 09:19:00;;;;;;;8.93;6.00;;;19.80;99.90;;;;;;5074520;28;35963;-76
2023/10/09 09:21:27;;;;;;;13.80;6.07;;;19.80;99.90;;;;;;5075421;28;37914;-77
2023/10/09 09:24:03;;;;;;;13.75;5.88;;;19.90;99.90;;;;;;5073729;27;38519;-76
2023/10/09 09:26:44;;;;;;;14.23;6.50;;;19.90;99.90;;;;;;5077692;28;48101;-77
2023/10/09 09:29:12;;;;;;;12.87;5.67;;;20.00;99.90;;;;;;5072574;27;39505;-76
2023/10/09 09:31:38;;;;;;;12.13;6.07;;;20.10;99.90;;;;;;5074934;28;37961;-77
2023/10/09 09:34:17;;;;;;;13.52;6.03;;;20.20;99.90;;;;;;5065297;28;38181;-77
2023/10/09 09:36:53;;;;;;;11.07;6.30;;;20.20;99.90;;;;;;5067635;27;37830;-77
2023/10/09 09:39:27;;;;;;;12.25;5.40;;;20.20;99.90;;;;;;5090892;27;37421;-78
2023/10/09 09:42:03;;;;;;;16.67;5.90;;;20.30;99.90;;;;;;5072464;27;38589;-77
2023/10/09 09:44:46;;;;;;;9.50;5.65;;;20.20;99.90;;;;;;5070993;27;47122;-77
2023/10/09 09:47:13;;;;;;;;;;;20.20;99.90;;;;;;5071010;28;37854;-77
2023/10/09 09:49:42;;;;;;;12.48;5.63;;;20.30;99.90;;;;;;5046316;28;38852;-78
2023/10/09 09:52:12;;;;;;;12.77;6.05;;;20.40;99.90;;;;;;5049042;27;37916;-77
2023/10/09 09:54:39;;;;;;;15.25;5.78;;;20.40;99.90;;;;;;5066327;27;38503;-78
2023/10/09 09:57:08;;;;;;;10.27;5.55;;;20.40;99.90;;;;;;5043744;28;37210;-77
2023/10/09 09:59:50;;;;;;;14.02;5.57;;;20.40;99.90;;;;;;5058926;28;36381;-78
2023/10/09 10:02:33;;;;;;;11.45;5.95;;;20.50;99.90;;;;;;5061345;27;37927;-78
2023/10/09 10:05:05;;;;;;;13.98;5.32;;;20.60;99.90;;;;;;5066683;27;38693;-78
2023/10/09 10:07:42;;;;;;;11.02;5.25;;;20.60;99.90;;;;;;5090262;27;47137;-78
2023/10/09 10:10:37;;;;;;;14.00;6.53;;;20.70;99.90;;;;;;5069590;27;37938;-77
2023/10/09 10:13:04;;;;;;;8.85;5.32;;;20.80;99.90;;;;;;5061474;28;38575;-78
2023/10/09 10:15:58;;;;;;;10.15;5.43;;;20.80;99.90;;;;;;5066531;27;38771;-78
2023/10/09 10:18:29;;;;;;;8.50;5.15;;;20.80;99.90;;;;;;5066619;27;37204;-78
2023/10/09 10:21:16;;;;;;;9.80;4.97;;;20.70;99.90;;;;;;5062502;27;36874;-79
2023/10/09 10:23:47;;;;;;;11.45;5.10;;;20.80;99.90;;;;;;5080807;27;47815;-79
2023/10/09 10:26:25;;;;;;;10.63;5.32;;;20.70;99.90;;;;;;5067486;27;39202;-78
2023/10/09 10:29:22;;;;;;;10.57;5.82;;;20.80;99.90;;;;;;5090638;27;38433;-78
2023/10/09 10:32:10;;;;;;;13.98;6.43;;;20.80;99.90;;;;;;5061146;27;49537;-79
2023/10/09 10:34:46;;;;;;;10.73;5.15;;;20.80;99.90;;;;;;5068183;27;50404;-78
2023/10/09 10:37:13;;;;;;;12.73;6.00;;;20.70;99.90;;;;;;5059511;27;37463;-77
2023/10/09 10:39:59;;;;;;;14.93;5.57;;;20.70;99.90;;;;;;5066779;27;36555;-79
2023/10/09 10:43:09;;;;;;;14.93;5.60;;;20.80;99.90;;;;;;5066524;27;36616;-84
2023/10/09 10:45:35;;;;;;;12.82;6.10;;;20.90;99.90;;;;;;5060818;28;48304;-79
2023/10/09 10:48:08;;;;;;;11.07;5.78;;;21.10;99.90;;;;;;5075572;27;39075;-79
2023/10/09 10:50:35;;;;;;;11.00;5.70;;;21.20;99.90;;;;;;5072877;28;47766;-79
2023/10/09 10:53:19;;;;;;;11.75;5.88;;;21.10;99.90;;;;;;5073609;27;37858;-81
2023/10/09 11:12:42;;;;;;;8.63;4.60;;;21.80;73.30;;;;;;5037237;27;39202;-80
2023/10/09 11:18:46;;;;;;;9.65;4.80;;;22.00;72.90;;;;;;5073409;28;38797;-80
2023/10/09 11:28:57;;;;;;;10.38;4.55;;;22.00;43.20;;;;;;5038584;28;49206;-80
2023/10/09 11:31:23;;;;;;;6.70;4.65;;;22.00;53.10;;;;;;5052048;27;37837;-79
2023/10/09 11:33:51;;;;;;;9.15;5.10;;;21.90;38.70;;;;;;5055711;28;38628;-79
2023/10/09 11:36:29;;;;;;;11.13;5.25;;;22.00;68.20;;;;;;5045101;28;37393;-80
2023/10/09 11:39:13;;;;;;;8.13;4.43;;;21.90;43.10;;;;;;5045838;28;39013;-84
2023/10/09 11:41:44;;;;;;;13.38;4.72;;;21.90;90.80;;;;;;5049540;27;48561;-81
2023/10/09 11:44:33;;;;;;;8.52;5.15;;;21.90;91.00;;;;;;5065162;27;38338;-82
2023/10/09 11:52:35;;;;;;;10.50;5.30;;;22.10;82.50;;;;;;5061695;27;38745;-80
2023/10/09 11:55:02;;;;;;;12.20;5.22;;;22.10;85.60;;;;;;5064561;28;38118;-79
2023/10/09 11:57:33;;;;;;;11.48;4.95;;;22.10;81.00;;;;;;5047921;28;36204;-80
2023/10/09 12:02:49;;;;;;;11.70;5.13;;;22.00;92.80;;;;;;5053933;28;48958;-79
2023/10/09 12:05:16;;;;;;;13.68;4.80;;;21.90;91.50;;;;;;5069489;28;38346;-80
2023/10/09 12:07:45;;;;;;;12.70;4.80;;;22.00;96.80;;;;;;5074312;28;36317;-80
2023/10/09 12:10:13;;;;;;;10.38;4.75;;;22.00;68.90;;;;;;5046085;28;37397;-80
2023/10/09 12:12:40;;;;;;;11.68;5.45;;;21.90;60.60;;;;;;5039112;28;37754;-80
2023/10/09 12:15:17;;;;;;;10.40;4.88;;;22.10;77.50;;;;;;5044419;28;37649;-80
2023/10/09 12:17:46;;;;;;;14.52;5.60;;;22.40;91.80;;;;;;5061994;28;35948;-81
2023/10/09 12:20:29;;;;;;;12.27;4.68;;;22.50;88.80;;;;;;5065893;27;38494;-80
2023/10/09 12:23:00;;;;;;;9.68;5.07;;;22.50;84.40;;;;;;5065750;27;39415;-80
2023/10/09 12:25:31;;;;;;;10.75;4.57;;;22.40;83.10;;;;;;5060805;27;37751;-80
2023/10/09 12:28:00;;;;;;;10.02;4.50;;;22.50;97.40;;;;;;5069663;27;37727;-80
2023/10/09 12:30:26;;;;;;;13.38;5.88;;;22.40;96.10;;;;;;5050038;28;37820;-80
2023/10/09 12:32:54;;;;;;;10.77;5.35;;;22.50;99.00;;;;;;5072052;28;38893;-79
2023/10/09 12:35:21;;;;;;;13.00;5.05;;;22.50;84.60;;;;;;5072433;28;37527;-80
2023/10/09 12:37:48;;;;;;;9.82;4.53;;;22.40;83.10;;;;;;5074820;28;36183;-80
2023/10/09 12:40:23;;;;;;;9.07;4.75;;;22.40;86.60;;;;;;5064601;28;37942;-80
2023/10/09 12:42:50;;;;;;;10.48;5.68;;;22.40;97.30;;;;;;5041923;28;37172;-80
2023/10/09 12:45:25;;;;;;;11.88;5.05;;;22.30;99.90;;;;;;5076140;27;37335;-81
2023/10/09 12:47:58;;;;;;;12.60;5.25;;;22.30;99.50;;;;;;5029164;28;36440;-80
2023/10/09 12:50:35;;;;;;;14.23;5.40;;;22.20;97.00;;;;;;5036814;28;38664;-80
2023/10/09 12:53:10;;;;;;;13.65;5.78;;;22.10;94.50;;;;;;5090025;27;37749;-79
2023/10/09 12:56:02;;;;;;;13.90;5.40;;;22.00;97.50;;;;;;5048694;27;47491;-80
2023/10/09 12:58:28;;;;;;;9.73;5.07;;;21.90;96.60;;;;;;5045561;28;47662;-80
2023/10/09 13:01:09;;;;;;;13.15;5.53;;;21.90;99.40;;;;;;5069953;28;38637;-81
2023/10/09 13:03:38;;;;;;;11.38;5.35;;;21.90;99.90;;;;;;5070319;28;47182;-80
2023/10/09 13:06:10;;;;;;;10.00;5.68;;;21.90;99.90;;;;;;5064759;27;37632;-81
2023/10/09 13:08:45;;;;;;;15.20;6.18;;;21.90;99.90;;;;;;5071921;28;36864;-80
2023/10/09 13:11:17;;;;;;;14.05;5.18;;;21.70;99.90;;;;;;5074050;28;37542;-80
2023/10/09 13:13:47;;;;;;;;;;;21.70;99.90;;;;;;5077266;27;38942;-79
2023/10/09 13:16:22;;;;;;;12.95;5.72;;;21.70;99.90;;;;;;5051933;27;37750;-78
2023/10/09 13:19:05;;;;;;;13.27;5.53;;;21.60;99.90;;;;;;5056962;27;37486;-77
2023/10/09 13:21:31;;;;;;;11.10;5.13;;;21.60;99.90;;;;;;5075380;28;46970;-77
2023/10/09 13:24:00;;;;;;;10.70;5.95;;;21.60;96.20;;;;;;5072396;28;38137;-77
2023/10/09 13:26:34;;;;;;;13.38;6.30;;;21.50;97.80;;;;;;5068219;28;37245;-78
2023/10/09 13:29:03;;;;;;;14.73;5.93;;;21.50;95.70;;;;;;5070013;28;37895;-79
2023/10/09 13:31:33;;;;;;;14.77;6.35;;;21.30;97.60;;;;;;5038491;28;48213;-78
2023/10/09 13:34:01;;;;;;;13.38;5.45;;;21.20;95.70;;;;;;5041718;28;37251;-79
2023/10/09 13:36:27;;;;;;;14.02;5.35;;;21.20;99.30;;;;;;5047311;28;45325;-79
2023/10/09 13:39:22;;;;;;;13.30;5.82;;;21.30;99.90;;;;;;5062783;28;35422;-78
2023/10/09 13:41:50;;;;;;;13.68;6.00;;;21.30;99.90;;;;;;5062322;28;48168;-79
2023/10/09 13:44:16;;;;;;;14.30;5.93;;;21.50;99.90;;;;;;5063525;27;37397;-78
2023/10/09 13:46:42;;;;;;;16.17;6.40;;;21.60;97.10;;;;;;5067469;27;37905;-79
2023/10/09 13:49:12;;;;;;;13.32;5.22;;;21.70;84.80;;;;;;5066649;27;37243;-79
2023/10/09 13:51:44;;;;;;;8.57;5.53;;;21.70;92.50;;;;;;5072810;27;38483;-80
2023/10/09 13:54:18;;;;;;;;;;;21.70;88.00;;;;;;5052036;28;39386;-79
2023/10/09 13:56:44;;;;;;;9.93;6.05;;;21.70;93.80;;;;;;5048002;28;39424;-80
2023/10/09 13:59:10;;;;;;;14.38;6.07;;;21.70;92.30;;;;;;5063813;28;34835;-79
2023/10/09 14:01:39;;;;;;;11.10;5.22;;;21.70;93.90;;;;;;5080996;27;38048;-79
2023/10/09 14:04:07;;;;;;;10.65;5.78;;;21.60;96.40;;;;;;5043854;28;37758;-78
2023/10/09 14:06:33;;;;;;;11.90;5.63;;;21.50;98.00;;;;;;5041762;28;35758;-79
2023/10/09 14:09:09;;;;;;;12.43;5.80;;;21.60;98.60;;;;;;5039669;28;39125;-78
2023/10/09 14:11:39;;;;;;;11.48;5.78;;;21.50;97.50;;;;;;5069482;28;48710;-78
2023/10/09 14:14:16;;;;;;;13.80;5.65;;;21.50;98.50;;;;;;5072482;28;37425;-80
2023/10/09 14:16:42;;;;;;;19.23;5.72;;;21.40;98.70;;;;;;5070819;28;37415;-79
2023/10/09 14:19:13;;;;;;;9.98;4.95;;;21.50;99.90;;;;;;5062036;28;36623;-79
2023/10/09 14:21:40;;;;;;;9.40;5.47;;;21.50;99.90;;;;;;5067535;27;39557;-79
2023/10/09 14:24:16;;;;;;;15.43;5.75;;;21.50;99.90;;;;;;5069877;27;38244;-80
2023/10/09 14:26:45;;;;;;;16.85;5.78;;;21.30;99.90;;;;;;5066389;28;37176;-81
2023/10/09 14:29:16;;;;;;;17.17;5.47;;;21.20;99.90;;;;;;5067979;27;38237;-80
2023/10/09 14:31:43;;;;;;;11.55;5.50;;;21.10;99.90;;;;;;5065012;27;39614;-79
2023/10/09 14:34:09;;;;;;;13.95;5.50;;;21.10;99.90;;;;;;5057832;27;38616;-79
2023/10/09 14:36:43;;;;;;;11.95;5.63;;;21.10;99.90;;;;;;5070489;28;37002;-80
2023/10/09 14:39:18;;;;;;;13.73;5.32;;;21.20;99.90;;;;;;5071386;28;35843;-80
2023/10/09 14:41:45;;;;;;;10.30;5.30;;;21.30;99.90;;;;;;5074810;27;40889;-79
2023/10/09 14:44:16;;;;;;;15.13;6.30;;;21.40;99.90;;;;;;5072734;28;38567;-81
2023/10/09 14:46:42;;;;;;;12.30;6.50;;;21.50;99.90;;;;;;5076936;27;36971;-80
2023/10/09 14:49:13;;;;;;;15.20;6.38;;;21.70;99.90;;;;;;5053785;27;37819;-80
2023/10/09 14:51:40;;;;;;;11.37;4.90;;;21.80;99.30;;;;;;5063248;27;37845;-80
2023/10/09 14:54:07;;;;;;;9.32;5.30;;;21.80;99.90;;;;;;5069195;27;36970;-81
2023/10/09 14:56:36;;;;;;;10.30;5.03;;;22.00;99.90;;;;;;5049557;28;36978;-80
2023/10/09 14:59:02;;;;;;;10.50;5.18;;;21.90;96.20;;;;;;5042396;28;36039;-80
2023/10/09 15:01:31;;;;;;;11.93;5.20;;;21.80;99.90;;;;;;5046247;28;37927;-80
2023/10/09 15:04:00;;;;;;;9.43;4.80;;;21.90;99.90;;;;;;5055813;28;39002;-80
2023/10/09 15:06:30;;;;;;;17.25;5.82;;;21.90;99.90;;;;;;5048991;28;38678;-81
2023/10/09 15:09:08;;;;;;;14.27;5.38;;;21.80;99.90;;;;;;5059449;28;37004;-83
2023/10/09 15:11:38;;;;;;;11.35;4.97;;;21.60;99.90;;;;;;5044931;28;48383;-84
2023/10/09 15:14:06;;;;;;;15.48;5.40;;;21.60;99.90;;;;;;5085027;27;38602;-83
2023/10/09 15:16:35;;;;;;;16.70;5.45;;;21.60;99.90;;;;;;5067003;27;37204;-84
2023/10/09 15:19:02;;;;;;;8.48;4.80;;;21.60;99.90;;;;;;5064261;27;37872;-84
2023/10/09 15:21:32;;;;;;;12.85;5.85;;;21.60;99.90;;;;;;5072048;28;47614;-83
2023/10/09 15:23:59;;;;;;;17.60;5.72;;;21.40;99.90;;;;;;5074798;28;36988;-83
2023/10/09 15:26:32;;;;;;;14.52;5.30;;;21.40;99.90;;;;;;5067728;27;36115;-84
2023/10/09 15:29:03;;;;;;;15.93;6.18;;;21.30;99.90;;;;;;5056673;28;36644;-85
2023/10/09 15:31:31;;;;;;;14.87;5.13;;;21.20;99.90;;;;;;5063582;28;47208;-80
2023/10/09 15:33:57;;;;;;;11.00;5.50;;;21.00;99.90;;;;;;5058499;28;37370;-84
2023/10/09 15:36:28;;;;;;;10.10;5.22;;;20.90;99.90;;;;;;5054437;28;37017;-81
2023/10/09 15:38:59;;;;;;;13.32;5.43;;;20.90;99.90;;;;;;5058854;28;36022;-79
2023/10/09 15:41:32;;;;;;;16.05;5.88;;;20.80;99.90;;;;;;5060400;28;37540;-79
2023/10/09 15:43:58;;;;;;;15.02;6.15;;;20.80;99.90;;;;;;5054153;28;39109;-79
2023/10/09 15:46:33;;;;;;;14.00;6.55;;;20.70;99.90;;;;;;5060144;28;35311;-76
2023/10/09 15:49:00;;;;;;;17.58;5.90;;;20.70;99.90;;;;;;5062417;28;37735;-78
2023/10/09 15:51:30;;;;;;;15.82;7.03;;;20.60;99.90;;;;;;5054969;28;39042;-78
2023/10/09 15:53:56;;;;;;;12.85;6.15;;;20.50;99.90;;;;;;5055988;28;38297;-77
2023/10/09 15:56:23;;;;;;;13.52;6.70;;;20.40;99.90;;;;;;5062315;28;37208;-77
2023/10/09 15:58:49;;;;;;;9.50;5.60;;;20.40;99.90;;;;;;5060494;28;36066;-76